Time;durP1;ratioP1;P1;durP2;ratioP2;P2;SDS_P1;SDS_P2;PMS_P1;PMS_P2;Temp;Humidity;BMP_temperature;BMP_pressure;BME280_temperature;BME280_humidity;BME280_pressure;Samples;Min_cycle;Max_cycle;Signal;HPM_P1;HPM_P2
2022/08/05 00:01:36;;;;;;;8.45;4.20;;;;;;;;;;5020899;28;20036;-76
2022/08/05 00:04:04;;;;;;;10.18;4.25;;;;;;;;;;5021904;28;20040;-78
2022/08/05 00:06:29;;;;;;;7.00;3.92;;;;;;;;;;5018656;28;20658;-75
2022/08/05 00:08:55;;;;;;;8.63;4.32;;;;;;;;;;5019672;28;20109;-76
2022/08/05 00:11:20;;;;;;;7.78;4.38;;;;;;;;;;5019561;28;20036;-76
2022/08/05 00:13:46;;;;;;;8.18;4.32;;;;;;;;;;5025152;28;20256;-76
2022/08/05 00:16:12;;;;;;;12.65;4.70;;;;;;;;;;5023395;28;20112;-75
2022/08/05 00:18:38;;;;;;;7.28;4.82;;;;;;;;;;5017975;28;20662;-75
2022/08/05 00:21:04;;;;;;;9.13;5.22;;;;;;;;;;5023168;28;20043;-76
2022/08/05 00:23:30;;;;;;;12.48;4.72;;;;;;;;;;5021266;28;20032;-76
2022/08/05 00:25:58;;;;;;;9.32;5.05;;;;;;;;;;5021083;28;20043;-75
2022/08/05 00:28:23;;;;;;;9.93;5.40;;;;;;;;;;5019573;28;20159;-75
2022/08/05 00:30:48;;;;;;;8.93;5.18;;;;;;;;;;5022239;28;20152;-75
2022/08/05 00:33:19;;;;;;;11.88;5.20;;;;;;;;;;5019528;28;20881;-73
2022/08/05 00:35:44;;;;;;;11.32;5.20;;;;;;;;;;5033036;28;20063;-73
2022/08/05 00:38:10;;;;;;;9.85;5.20;;;;;;;;;;5038629;28;20048;-73
2022/08/05 00:40:44;;;;;;;11.10;5.60;;;;;;;;;;5023328;28;20405;-72
2022/08/05 00:43:09;;;;;;;11.50;5.18;;;;;;;;;;5026428;28;20159;-72
2022/08/05 00:45:37;;;;;;;10.98;4.95;;;;;;;;;;5022649;28;20041;-72
2022/08/05 00:48:02;;;;;;;10.68;4.80;;;;;;;;;;5023416;28;20551;-72
2022/08/05 00:50:27;;;;;;;9.88;5.07;;;;;;;;;;5035484;28;20170;-74
2022/08/05 00:52:52;;;;;;;10.73;5.05;;;;;;;;;;5024928;28;20062;-73
2022/08/05 00:55:18;;;;;;;11.82;5.28;;;;;;;;;;5024430;28;20059;-73
2022/08/05 00:57:47;;;;;;;10.15;4.78;;;;;;;;;;5037685;28;20140;-72
2022/08/05 01:00:13;;;;;;;10.63;4.90;;;;;;;;;;5022169;28;20036;-72
2022/08/05 01:02:38;;;;;;;10.52;4.85;;;;;;;;;;5027129;28;20883;-72
2022/08/05 01:05:06;;;;;;;8.93;4.68;;;;;;;;;;5023135;28;20143;-75
2022/08/05 01:07:32;;;;;;;11.00;5.07;;;;;;;;;;5038832;28;20376;-76
2022/08/05 01:09:58;;;;;;;11.93;5.18;;;;;;;;;;5022762;28;20204;-75
2022/08/05 01:12:23;;;;;;;10.98;5.40;;;;;;;;;;5007262;28;20036;-77
2022/08/05 01:14:52;;;;;;;8.88;4.95;;;;;;;;;;5022551;28;20060;-76
2022/08/05 01:17:43;;;;;;;9.75;4.97;;;;;;;;;;5023869;28;20549;-77
2022/08/05 01:20:11;;;;;;;11.90;5.72;;;;;;;;;;5020035;28;20041;-71
2022/08/05 01:22:55;;;;;;;10.75;5.13;;;;;;;;;;5020872;28;21968;-75
2022/08/05 01:25:32;;;;;;;8.63;5.25;;;;;;;;;;5025558;28;20189;-76
2022/08/05 01:28:10;;;;;;;10.50;5.15;;;;;;;;;;5039063;28;20037;-77
2022/08/05 01:30:38;;;;;;;10.48;5.20;;;;;;;;;;5022230;28;20145;-76
2022/08/05 01:33:05;;;;;;;11.95;5.63;;;;;;;;;;5020485;28;20571;-77
2022/08/05 01:35:31;;;;;;;10.48;4.70;;;;;;;;;;5022907;28;20223;-76
2022/08/05 01:37:58;;;;;;;13.20;4.90;;;;;;;;;;5026300;28;20892;-72
2022/08/05 01:40:27;;;;;;;8.57;4.80;;;;;;;;;;5021766;28;20040;-73
2022/08/05 01:42:53;;;;;;;10.65;4.43;;;;;;;;;;5034552;28;20044;-71
2022/08/05 01:45:19;;;;;;;8.25;4.57;;;;;;;;;;5004691;28;20029;-73
2022/08/05 01:47:46;;;;;;;9.18;4.43;;;;;;;;;;5022687;28;21074;-72
2022/08/05 01:50:25;;;;;;;11.02;4.80;;;;;;;;;;5020682;28;20240;-72
2022/08/05 01:52:52;;;;;;;9.32;4.68;;;;;;;;;;5022518;28;20036;-74
2022/08/05 01:55:19;;;;;;;9.93;4.45;;;;;;;;;;5022326;28;20114;-72
2022/08/05 01:57:45;;;;;;;9.50;4.88;;;;;;;;;;5022583;28;20155;-73
2022/08/05 02:00:11;;;;;;;7.72;4.13;;;;;;;;;;5019277;28;20295;-73
2022/08/05 02:02:38;;;;;;;7.65;4.13;;;;;;;;;;5021551;28;20035;-72
2022/08/05 02:05:05;;;;;;;7.97;4.07;;;;;;;;;;5021807;28;20129;-74
2022/08/05 02:07:31;;;;;;;8.82;4.22;;;;;;;;;;5022067;28;20036;-73
2022/08/05 02:09:56;;;;;;;9.18;4.10;;;;;;;;;;5034278;28;20030;-75
2022/08/05 02:12:22;;;;;;;9.27;4.00;;;;;;;;;;5022309;28;20033;-73
2022/08/05 02:15:08;;;;;;;6.30;3.90;;;;;;;;;;5021840;28;20152;-72
2022/08/05 02:17:53;;;;;;;6.75;4.03;;;;;;;;;;5008439;28;20036;-73
2022/08/05 02:20:24;;;;;;;7.85;3.88;;;;;;;;;;5016102;28;20507;-72
2022/08/05 02:22:55;;;;;;;6.35;3.80;;;;;;;;;;5019198;28;21755;-72
2022/08/05 02:25:25;;;;;;;10.13;3.63;;;;;;;;;;5021003;28;20232;-73
2022/08/05 02:27:52;;;;;;;6.82;3.40;;;;;;;;;;5020295;28;20037;-72
2022/08/05 02:30:17;;;;;;;7.82;3.70;;;;;;;;;;5022274;28;20302;-73
2022/08/05 02:32:46;;;;;;;6.88;3.20;;;;;;;;;;5019608;28;20039;-73
2022/08/05 02:35:14;;;;;;;6.28;3.40;;;;;;;;;;5019747;28;20041;-73
2022/08/05 02:37:42;;;;;;;7.47;3.45;;;;;;;;;;5021986;28;20852;-73
2022/08/05 02:40:08;;;;;;;5.65;3.15;;;;;;;;;;5019705;28;20037;-72
2022/08/05 02:42:34;;;;;;;6.05;3.17;;;;;;;;;;5033774;28;20059;-72
2022/08/05 02:45:00;;;;;;;7.05;3.83;;;;;;;;;;5020104;28;20912;-72
2022/08/05 02:47:26;;;;;;;7.25;3.08;;;;;;;;;;5022000;28;21134;-72
2022/08/05 02:49:52;;;;;;;7.20;3.40;;;;;;;;;;5009454;28;20042;-72
2022/08/05 02:52:20;;;;;;;6.72;2.85;;;;;;;;;;5033980;28;20355;-73
2022/08/05 02:54:46;;;;;;;7.05;3.47;;;;;;;;;;5019757;28;20081;-71
2022/08/05 02:57:13;;;;;;;5.30;2.65;;;;;;;;;;5020358;28;20159;-72
2022/08/05 02:59:43;;;;;;;5.82;2.80;;;;;;;;;;5019225;28;20048;-73
2022/08/05 03:02:10;;;;;;;4.25;2.75;;;;;;;;;;5019109;28;20305;-72
2022/08/05 03:04:36;;;;;;;6.10;2.78;;;;;;;;;;5020374;28;20044;-73
2022/08/05 03:07:02;;;;;;;6.97;2.88;;;;;;;;;;5018905;28;20570;-73
2022/08/05 03:09:30;;;;;;;6.78;2.67;;;;;;;;;;5020081;28;20029;-72
2022/08/05 03:11:55;;;;;;;4.18;2.60;;;;;;;;;;5033638;28;20120;-73
2022/08/05 03:14:23;;;;;;;5.18;2.67;;;;;;;;;;5019206;28;20211;-73
2022/08/05 03:16:48;;;;;;;7.72;2.60;;;;;;;;;;5035321;28;20032;-72
2022/08/05 03:19:16;;;;;;;6.18;2.60;;;;;;;;;;5019287;28;20280;-71
2022/08/05 03:21:41;;;;;;;6.47;2.50;;;;;;;;;;5022436;28;20433;-73
2022/08/05 03:24:09;;;;;;;5.40;2.63;;;;;;;;;;5018322;28;20705;-73
2022/08/05 03:26:34;;;;;;;4.72;2.17;;;;;;;;;;5024213;28;20515;-73
2022/08/05 03:29:00;;;;;;;6.28;2.90;;;;;;;;;;5019944;28;20048;-73
2022/08/05 03:31:26;;;;;;;5.38;2.50;;;;;;;;;;5001736;28;20036;-73
2022/08/05 03:33:51;;;;;;;5.40;2.45;;;;;;;;;;5018657;28;20543;-73
2022/08/05 03:36:17;;;;;;;5.18;2.53;;;;;;;;;;5018770;28;20153;-72
2022/08/05 03:38:42;;;;;;;5.72;2.60;;;;;;;;;;5019605;28;20605;-76
2022/08/05 03:41:08;;;;;;;6.50;2.60;;;;;;;;;;5020651;28;20072;-73
2022/08/05 03:43:34;;;;;;;6.22;2.60;;;;;;;;;;5020232;28;20051;-73
2022/08/05 03:46:00;;;;;;;5.75;2.60;;;;;;;;;;5019885;28;20129;-72
2022/08/05 03:48:26;;;;;;;5.75;2.47;;;;;;;;;;5017537;28;20032;-72
2022/08/05 03:50:54;;;;;;;4.15;2.70;;;;;;;;;;5007060;28;20284;-74
2022/08/05 03:53:37;;;;;;;5.82;2.78;;;;;;;;;;5021013;28;20437;-73
2022/08/05 03:56:16;;;;;;;4.85;2.67;;;;;;;;;;5019174;28;21048;-72
2022/08/05 03:58:43;;;;;;;5.72;2.83;;;;;;;;;;5019441;28;20072;-73
2022/08/05 04:01:09;;;;;;;8.00;3.30;;;;;;;;;;5008548;28;20036;-73
2022/08/05 04:03:36;;;;;;;4.85;2.75;;;;;;;;;;5018554;28;20033;-72
2022/08/05 04:06:05;;;;;;;4.15;2.55;;;;;;;;;;5018546;28;20067;-72
2022/08/05 04:08:33;;;;;;;6.93;2.70;;;;;;;;;;5020038;28;20139;-75
2022/08/05 04:11:00;;;;;;;4.30;2.40;;;;;;;;;;5019340;28;20752;-76
2022/08/05 04:13:26;;;;;;;4.22;2.40;;;;;;;;;;5019781;28;20033;-76
2022/08/05 04:15:52;;;;;;;6.88;2.65;;;;;;;;;;5022122;28;20050;-76
2022/08/05 04:18:18;;;;;;;3.53;2.58;;;;;;;;;;5019584;28;20052;-75
2022/08/05 04:20:43;;;;;;;5.60;2.53;;;;;;;;;;5019405;28;20041;-76
2022/08/05 04:23:11;;;;;;;5.85;2.70;;;;;;;;;;5018758;28;20135;-76
2022/08/05 04:25:36;;;;;;;4.22;2.35;;;;;;;;;;5019563;28;20093;-75
2022/08/05 04:28:02;;;;;;;6.40;2.60;;;;;;;;;;5019961;28;20514;-75
2022/08/05 04:30:28;;;;;;;5.03;2.20;;;;;;;;;;5018148;28;20214;-76
2022/08/05 04:32:53;;;;;;;4.13;2.30;;;;;;;;;;5037108;28;20040;-76
2022/08/05 04:35:18;;;;;;;4.88;2.22;;;;;;;;;;5034126;28;20283;-76
2022/08/05 04:37:44;;;;;;;4.57;1.80;;;;;;;;;;5018997;28;22418;-76
2022/08/05 04:40:09;;;;;;;5.65;2.40;;;;;;;;;;5034365;28;20028;-77
2022/08/05 04:42:35;;;;;;;3.97;2.00;;;;;;;;;;5020020;28;20031;-75
2022/08/05 04:45:00;;;;;;;4.18;2.00;;;;;;;;;;5021017;28;20036;-76
2022/08/05 04:47:26;;;;;;;5.05;1.90;;;;;;;;;;5018465;28;20040;-77
2022/08/05 04:49:51;;;;;;;3.70;2.00;;;;;;;;;;5022501;28;20036;-76
2022/08/05 04:52:16;;;;;;;8.13;2.15;;;;;;;;;;5018480;28;20502;-75
2022/08/05 04:54:42;;;;;;;5.15;2.13;;;;;;;;;;5019629;28;20531;-76
2022/08/05 04:57:10;;;;;;;5.15;2.10;;;;;;;;;;5009358;28;20029;-75
2022/08/05 04:59:38;;;;;;;3.72;1.65;;;;;;;;;;5030595;27;20037;-77
2022/08/05 05:02:03;;;;;;;3.78;1.98;;;;;;;;;;5020414;27;20032;-76
2022/08/05 05:04:28;;;;;;;6.43;1.70;;;;;;;;;;5051456;27;20234;-75
2022/08/05 05:06:56;;;;;;;4.30;1.75;;;;;;;;;;5014620;27;20113;-76
2022/08/05 05:09:21;;;;;;;4.28;1.80;;;;;;;;;;5011778;27;20307;-76
2022/08/05 05:11:47;;;;;;;4.68;1.80;;;;;;;;;;5017756;27;20596;-77
2022/08/05 05:14:12;;;;;;;6.57;1.73;;;;;;;;;;5016010;27;20120;-75
2022/08/05 05:16:37;;;;;;;5.38;1.83;;;;;;;;;;5020339;27;20067;-74
2022/08/05 05:19:05;;;;;;;3.63;1.50;;;;;;;;;;5021955;27;20467;-75
2022/08/05 05:21:31;;;;;;;3.67;1.10;;;;;;;;;;5047413;28;20470;-75
2022/08/05 05:23:59;;;;;;;4.63;1.30;;;;;;;;;;5023955;27;20474;-74
2022/08/05 05:26:26;;;;;;;4.97;1.10;;;;;;;;;;5016527;28;20028;-74
2022/08/05 05:28:52;;;;;;;6.10;1.08;;;;;;;;;;5034172;27;20221;-75
2022/08/05 05:31:17;;;;;;;4.57;1.20;;;;;;;;;;4999625;28;20120;-75
2022/08/05 05:33:45;;;;;;;5.32;1.00;;;;;;;;;;5001652;28;20037;-76
2022/08/05 05:36:11;;;;;;;1.95;0.98;;;;;;;;;;5004034;28;20033;-75
2022/08/05 05:38:36;;;;;;;2.55;1.10;;;;;;;;;;5040313;28;20043;-74
2022/08/05 05:41:01;;;;;;;6.35;1.20;;;;;;;;;;5019789;28;20055;-75
2022/08/05 05:43:27;;;;;;;2.53;1.10;;;;;;;;;;5022504;28;20094;-75
2022/08/05 05:45:52;;;;;;;4.60;1.10;;;;;;;;;;5024108;28;20564;-75
2022/08/05 05:48:17;;;;;;;1.98;0.90;;;;;;;;;;5019693;28;20190;-74
2022/08/05 05:50:42;;;;;;;3.35;0.90;;;;;;;;;;5037110;28;20048;-75
2022/08/05 05:53:09;;;;;;;4.13;1.10;;;;;;;;;;5024219;28;20039;-76
2022/08/05 05:55:34;;;;;;;12.30;1.20;;;;;;;;;;5022410;28;20071;-76
2022/08/05 05:58:00;;;;;;;7.32;1.35;;;;;;;;;;5027175;28;20100;-76
2022/08/05 06:00:25;;;;;;;7.18;1.00;;;;;;;;;;5023233;28;20033;-75
2022/08/05 06:02:51;;;;;;;4.47;1.00;;;;;;;;;;5023776;28;20040;-75
2022/08/05 06:05:17;;;;;;;5.70;0.98;;;;;;;;;;5020074;28;20064;-75
2022/08/05 06:07:43;;;;;;;5.15;1.45;;;;;;;;;;5034771;28;20029;-74
2022/08/05 06:10:09;;;;;;;4.70;1.10;;;;;;;;;;5020686;28;20816;-75
2022/08/05 06:12:35;;;;;;;5.45;1.10;;;;;;;;;;5027572;28;20033;-74
2022/08/05 06:15:01;;;;;;;4.90;0.82;;;;;;;;;;5024248;28;20033;-75
2022/08/05 06:17:27;;;;;;;5.32;1.00;;;;;;;;;;5022179;28;20028;-75
2022/08/05 06:19:52;;;;;;;5.55;0.93;;;;;;;;;;5021996;28;20093;-75
2022/08/05 06:22:26;;;;;;;3.47;1.10;;;;;;;;;;5028574;28;20285;-74
2022/08/05 06:24:52;;;;;;;3.90;1.00;;;;;;;;;;5023125;28;20202;-75
2022/08/05 06:27:20;;;;;;;3.40;0.90;;;;;;;;;;5009701;28;20057;-74
2022/08/05 06:29:45;;;;;;;3.40;0.70;;;;;;;;;;5022963;28;20444;-73
2022/08/05 06:32:11;;;;;;;4.85;1.15;;;;;;;;;;5037854;28;20041;-74
2022/08/05 06:34:36;;;;;;;5.63;1.00;;;;;;;;;;5036051;28;20444;-75
2022/08/05 06:37:01;;;;;;;4.95;0.98;;;;;;;;;;5040677;28;20353;-75
2022/08/05 06:39:27;;;;;;;3.85;0.88;;;;;;;;;;5040074;28;20477;-74
2022/08/05 06:41:52;;;;;;;4.50;0.90;;;;;;;;;;5053299;28;20037;-74
2022/08/05 06:44:18;;;;;;;3.55;0.90;;;;;;;;;;5058520;28;20340;-73
2022/08/05 06:46:43;;;;;;;5.68;0.90;;;;;;;;;;5060172;28;20032;-75
2022/08/05 06:49:09;;;;;;;4.35;0.82;;;;;;;;;;5059651;28;20032;-73
2022/08/05 06:51:34;;;;;;;4.25;0.95;;;;;;;;;;5047227;28;20029;-73
2022/08/05 06:54:00;;;;;;;3.58;0.68;;;;;;;;;;5032545;28;20127;-75
2022/08/05 06:56:26;;;;;;;2.60;0.70;;;;;;;;;;5038266;28;20030;-73
2022/08/05 06:58:52;;;;;;;2.58;0.63;;;;;;;;;;5044223;28;20048;-75
2022/08/05 07:01:17;;;;;;;2.47;0.70;;;;;;;;;;5048583;28;20028;-74
2022/08/05 07:03:42;;;;;;;4.35;0.80;;;;;;;;;;5034961;28;20090;-73
2022/08/05 07:06:08;;;;;;;3.28;0.60;;;;;;;;;;5039758;28;20037;-75
2022/08/05 07:08:33;;;;;;;3.85;0.68;;;;;;;;;;5056709;28;20541;-74
2022/08/05 07:10:58;;;;;;;2.85;0.63;;;;;;;;;;5032816;28;20293;-74
2022/08/05 07:18:56;;;;;;;1.77;0.63;;;;;;;;;;5049325;28;20174;-76
2022/08/05 07:21:24;;;;;;;4.68;0.75;;;;;;;;;;5050091;28;20093;-75
2022/08/05 07:23:49;;;;;;;3.97;0.60;;;;;;;;;;5033237;28;20489;-74
2022/08/05 07:26:14;;;;;;;5.72;0.88;;;;;;;;;;5049553;28;21183;-74
2022/08/05 07:28:40;;;;;;;5.20;0.60;;;;;;;;;;5041268;28;20059;-74
2022/08/05 07:31:05;;;;;;;1.83;0.63;;;;;;;;;;5070865;28;20028;-74
2022/08/05 07:33:31;;;;;;;5.25;0.63;;;;;;;;;;5052195;28;20040;-74
2022/08/05 07:35:57;;;;;;;3.45;0.75;;;;;;;;;;5050788;28;20032;-74
2022/08/05 07:38:23;;;;;;;6.28;0.90;;;;;;;;;;5049855;28;20490;-74
2022/08/05 07:40:48;;;;;;;3.92;0.70;;;;;;;;;;5065880;28;20498;-73
2022/08/05 07:43:13;;;;;;;3.95;0.60;;;;;;;;;;5052454;28;20033;-75
2022/08/05 07:45:41;;;;;;;6.18;0.85;;;;;;;;;;5051298;28;20029;-73
2022/08/05 07:48:06;;;;;;;6.93;0.60;;;;;;;;;;5051350;28;20560;-74
2022/08/05 07:50:31;;;;;;;4.22;0.90;;;;;;;;;;5047448;28;20024;-75
2022/08/05 07:52:56;;;;;;;7.22;1.23;;;;;;;;;;5042504;28;20512;-73
2022/08/05 07:55:22;;;;;;;4.03;0.88;;;;;;;;;;5052647;28;20490;-74
2022/08/05 07:57:47;;;;;;;6.18;0.82;;;;;;;;;;5036625;28;24612;-76
2022/08/05 08:00:13;;;;;;;6.47;0.63;;;;;;;;;;5050065;28;20048;-74
2022/08/05 08:02:39;;;;;;;6.32;0.70;;;;;;;;;;5050056;28;20029;-73
2022/08/05 08:05:04;;;;;;;4.72;0.88;;;;;;;;;;5051548;28;20495;-75
2022/08/05 08:07:30;;;;;;;2.38;0.50;;;;;;;;;;5038792;28;20488;-75
2022/08/05 08:09:55;;;;;;;4.50;0.80;;;;;;;;;;5041248;28;20036;-75
2022/08/05 08:12:21;;;;;;;3.72;0.63;;;;;;;;;;5044394;28;20030;-75
2022/08/05 08:14:47;;;;;;;3.58;0.60;;;;;;;;;;5046450;28;20445;-76
2022/08/05 08:17:12;;;;;;;4.00;0.70;;;;;;;;;;5047861;28;20033;-75
2022/08/05 08:19:41;;;;;;;4.63;0.50;;;;;;;;;;5028186;28;20521;-72
2022/08/05 08:22:09;;;;;;;2.50;0.60;;;;;;;;;;5040674;28;20618;-74
2022/08/05 08:24:37;;;;;;;5.07;0.60;;;;;;;;;;5031009;28;20037;-74
2022/08/05 08:27:05;;;;;;;2.70;0.68;;;;;;;;;;5026565;28;20413;-76
2022/08/05 08:29:33;;;;;;;6.30;0.70;;;;;;;;;;5039935;28;20725;-75
2022/08/05 08:32:01;;;;;;;3.88;0.68;;;;;;;;;;5025618;28;20036;-75
2022/08/05 08:34:26;;;;;;;4.18;0.50;;;;;;;;;;5016651;28;20131;-76
2022/08/05 08:36:54;;;;;;;4.15;0.50;;;;;;;;;;5031256;28;20040;-75
2022/08/05 08:39:22;;;;;;;3.92;0.55;;;;;;;;;;5030326;28;20576;-75
2022/08/05 08:41:47;;;;;;;5.93;0.80;;;;;;;;;;5034459;28;20385;-73
2022/08/05 08:44:17;;;;;;;3.42;0.60;;;;;;;;;;5034601;28;20068;-75
2022/08/05 08:46:42;;;;;;;3.53;0.80;;;;;;;;;;5040962;28;20028;-72
2022/08/05 08:49:09;;;;;;;3.95;0.90;;;;;;;;;;5034895;28;20134;-75
2022/08/05 08:51:36;;;;;;;6.63;0.70;;;;;;;;;;5035634;28;20973;-76
2022/08/05 08:54:01;;;;;;;6.78;0.55;;;;;;;;;;5027805;28;20252;-75
2022/08/05 08:56:30;;;;;;;4.00;0.63;;;;;;;;;;5030572;28;20052;-75
2022/08/05 08:58:58;;;;;;;3.88;0.52;;;;;;;;;;5039350;28;20452;-73
2022/08/05 09:01:23;;;;;;;3.08;0.50;;;;;;;;;;5043091;28;20414;-76
2022/08/05 09:03:50;;;;;;;4.50;0.63;;;;;;;;;;5042335;28;20036;-75
2022/08/05 09:06:15;;;;;;;3.92;0.75;;;;;;;;;;5024640;28;20032;-76
2022/08/05 09:08:41;;;;;;;3.25;0.80;;;;;;;;;;5038659;28;20661;-74
2022/08/05 09:11:06;;;;;;;4.05;0.88;;;;;;;;;;5021611;28;20083;-76
2022/08/05 09:13:33;;;;;;;4.80;0.70;;;;;;;;;;5047631;28;20036;-74
2022/08/05 09:15:58;;;;;;;4.32;0.63;;;;;;;;;;5051374;28;20113;-75
2022/08/05 09:18:24;;;;;;;5.38;0.60;;;;;;;;;;5029487;28;20410;-74
2022/08/05 09:20:50;;;;;;;3.13;0.65;;;;;;;;;;5032902;28;20052;-70
2022/08/05 09:23:16;;;;;;;8.63;0.70;;;;;;;;;;5038092;28;20167;-77
2022/08/05 09:25:42;;;;;;;6.72;0.95;;;;;;;;;;5049928;28;20036;-77
2022/08/05 09:28:18;;;;;;;4.40;0.60;;;;;;;;;;5058530;28;20062;-76
2022/08/05 09:30:51;;;;;;;3.58;0.68;;;;;;;;;;5052453;28;20359;-76
2022/08/05 09:33:17;;;;;;;2.58;0.70;;;;;;;;;;5054560;28;20025;-76
2022/08/05 09:35:52;;;;;;;4.35;0.70;;;;;;;;;;5052641;28;20055;-80
2022/08/05 09:38:18;;;;;;;5.60;0.65;;;;;;;;;;5035045;28;20064;-77
2022/08/05 09:40:44;;;;;;;2.75;0.50;;;;;;;;;;5035979;28;20075;-76
2022/08/05 09:43:24;;;;;;;5.18;0.80;;;;;;;;;;5032811;28;20048;-75
2022/08/05 09:45:49;;;;;;;4.25;0.70;;;;;;;;;;5009171;28;20131;-76
2022/08/05 09:48:24;;;;;;;5.10;0.70;;;;;;;;;;5020636;28;20252;-76
2022/08/05 09:50:50;;;;;;;5.63;0.80;;;;;;;;;;5025451;28;20069;-75
2022/08/05 09:53:17;;;;;;;3.75;0.65;;;;;;;;;;5021896;28;20055;-73
2022/08/05 09:55:42;;;;;;;2.70;0.60;;;;;;;;;;5019749;28;20478;-75
2022/08/05 09:58:09;;;;;;;4.00;0.60;;;;;;;;;;5017433;28;20567;-72
2022/08/05 10:00:35;;;;;;;3.08;0.60;;;;;;;;;;5033641;28;20029;-73
2022/08/05 10:03:07;;;;;;;4.75;0.88;;;;;;;;;;5022716;28;20033;-75
2022/08/05 10:05:32;;;;;;;3.00;0.60;;;;;;;;;;5019134;28;20121;-74
2022/08/05 10:08:02;;;;;;;3.33;0.50;;;;;;;;;;5019688;28;20040;-76
2022/08/05 10:10:35;;;;;;;3.47;0.40;;;;;;;;;;5019645;28;20035;-74
2022/08/05 10:13:01;;;;;;;2.38;0.47;;;;;;;;;;4998425;28;20030;-74
2022/08/05 10:15:36;;;;;;;2.78;0.70;;;;;;;;;;5014100;28;20452;-76
2022/08/05 10:18:14;;;;;;;3.35;0.57;;;;;;;;;;4999377;28;20065;-73
2022/08/05 10:20:42;;;;;;;4.13;0.50;;;;;;;;;;5019605;27;20029;-73
2022/08/05 10:23:11;;;;;;;1.60;0.52;;;;;;;;;;5052228;27;20032;-74
2022/08/05 10:25:37;;;;;;;2.58;0.70;;;;;;;;;;5019726;27;20075;-74
2022/08/05 10:28:02;;;;;;;4.32;0.82;;;;;;;;;;5032431;27;20580;-76
2022/08/05 10:30:27;;;;;;;2.75;0.65;;;;;;;;;;5019100;27;20025;-75
2022/08/05 10:32:53;;;;;;;2.70;0.60;;;;;;;;;;5016880;28;20273;-76
2022/08/05 10:35:19;;;;;;;2.28;0.40;;;;;;;;;;5017946;27;20047;-75
2022/08/05 10:37:46;;;;;;;5.65;0.68;;;;;;;;;;5021694;27;20068;-75
2022/08/05 10:40:20;;;;;;;3.88;0.73;;;;;;;;;;5017394;27;20048;-75
2022/08/05 10:42:46;;;;;;;3.78;0.77;;;;;;;;;;5001971;28;20482;-74
2022/08/05 10:45:12;;;;;;;5.40;0.80;;;;;;;;;;4999923;28;20040;-73
2022/08/05 10:47:43;;;;;;;4.72;0.80;;;;;;;;;;5015473;27;20472;-75
2022/08/05 10:50:12;;;;;;;4.22;0.63;;;;;;;;;;5019295;28;20032;-71
2022/08/05 10:52:58;;;;;;;3.65;0.90;;;;;;;;;;5007002;28;20197;-75
2022/08/05 10:55:24;;;;;;;3.33;0.50;;;;;;;;;;5018294;28;20074;-75
2022/08/05 10:58:07;;;;;;;3.10;0.70;;;;;;;;;;5019812;28;20051;-75
2022/08/05 11:00:32;;;;;;;3.60;0.80;;;;;;;;;;5018800;28;20040;-75
2022/08/05 11:02:58;;;;;;;4.28;0.68;;;;;;;;;;5019529;28;20359;-75
2022/08/05 11:05:24;;;;;;;2.85;0.50;;;;;;;;;;5017449;28;20044;-76
2022/08/05 11:07:56;;;;;;;3.75;0.85;;;;;;;;;;5036306;28;20029;-74
2022/08/05 11:10:22;;;;;;;3.25;0.50;;;;;;;;;;5017295;28;20056;-75
2022/08/05 11:12:48;;;;;;;2.78;0.57;;;;;;;;;;5021065;28;22427;-74
2022/08/05 11:15:17;;;;;;;4.43;0.68;;;;;;;;;;5019990;28;20598;-75
2022/08/05 11:17:45;;;;;;;1.92;0.50;;;;;;;;;;5021671;28;20037;-75
2022/08/05 11:20:29;;;;;;;3.15;0.70;;;;;;;;;;5019525;28;20118;-74
2022/08/05 11:22:54;;;;;;;4.25;0.60;;;;;;;;;;5025966;27;22300;-71
2022/08/05 11:25:27;;;;;;;3.63;0.63;;;;;;;;;;5033616;27;20120;-74
2022/08/05 11:27:53;;;;;;;4.43;0.85;;;;;;;;;;5019026;28;20029;-75
2022/08/05 11:30:18;;;;;;;4.82;0.90;;;;;;;;;;5020888;28;20588;-76
2022/08/05 11:32:44;;;;;;;2.15;0.50;;;;;;;;;;5019283;28;20402;-74
2022/08/05 11:35:29;;;;;;;3.38;0.70;;;;;;;;;;5019608;28;20040;-75
2022/08/05 11:37:54;;;;;;;3.15;0.50;;;;;;;;;;5036096;28;20745;-75
2022/08/05 11:40:31;;;;;;;3.40;0.98;;;;;;;;;;5033791;28;20095;-75
2022/08/05 11:42:57;;;;;;;3.58;0.68;;;;;;;;;;5018928;28;20484;-75
2022/08/05 11:45:23;;;;;;;3.03;0.73;;;;;;;;;;5019990;28;20044;-76
2022/08/05 11:47:50;;;;;;;6.55;0.90;;;;;;;;;;5032006;28;20229;-76
2022/08/05 11:50:16;;;;;;;3.85;0.70;;;;;;;;;;5021687;28;20029;-75
2022/08/05 11:52:41;;;;;;;3.50;0.93;;;;;;;;;;5017263;28;20173;-76
2022/08/05 11:55:07;;;;;;;4.57;0.73;;;;;;;;;;5002312;28;20519;-75
2022/08/05 11:57:33;;;;;;;3.03;0.70;;;;;;;;;;5023211;28;20128;-74
2022/08/05 11:59:59;;;;;;;4.20;0.68;;;;;;;;;;5007320;28;20324;-75
2022/08/05 12:02:27;;;;;;;3.97;0.65;;;;;;;;;;5018127;28;20033;-75
2022/08/05 12:04:52;;;;;;;4.75;0.80;;;;;;;;;;5017013;28;20040;-76
2022/08/05 12:07:18;;;;;;;5.10;0.90;;;;;;;;;;5020506;28;20356;-75
2022/08/05 12:09:47;;;;;;;4.00;0.70;;;;;;;;;;5020373;28;20036;-76
2022/08/05 12:12:19;;;;;;;6.72;0.90;;;;;;;;;;5019142;28;20041;-78
2022/08/05 12:14:44;;;;;;;4.93;0.85;;;;;;;;;;5017086;28;20430;-74
2022/08/05 12:17:11;;;;;;;2.47;0.60;;;;;;;;;;5022523;28;22322;-75
2022/08/05 12:19:40;;;;;;;3.72;0.52;;;;;;;;;;5018726;28;20171;-76
2022/08/05 12:22:05;;;;;;;7.43;0.80;;;;;;;;;;5018995;28;20044;-75
2022/08/05 12:24:33;;;;;;;7.03;0.93;;;;;;;;;;5017342;28;20605;-74
2022/08/05 12:27:03;;;;;;;3.67;0.68;;;;;;;;;;5019855;28;20036;-77
2022/08/05 12:29:28;;;;;;;4.45;1.05;;;;;;;;;;5018564;28;20033;-74
2022/08/05 12:31:54;;;;;;;5.93;0.80;;;;;;;;;;5034211;28;20134;-74
2022/08/05 12:34:38;;;;;;;8.77;0.80;;;;;;;;;;5018205;28;20067;-75
2022/08/05 12:37:10;;;;;;;7.38;1.23;;;;;;;;;;5016131;28;20502;-75
2022/08/05 12:39:39;;;;;;;11.10;1.48;;;;;;;;;;5017205;28;20040;-76
2022/08/05 12:42:09;;;;;;;8.48;1.23;;;;;;;;;;5019261;28;20059;-78
2022/08/05 12:44:34;;;;;;;8.82;1.10;;;;;;;;;;5017780;28;20071;-74
2022/08/05 12:47:00;;;;;;;6.00;0.90;;;;;;;;;;5022528;28;20040;-76
2022/08/05 12:49:37;;;;;;;11.55;1.50;;;;;;;;;;5020511;28;20121;-76
2022/08/05 12:52:03;;;;;;;9.15;1.52;;;;;;;;;;5025963;28;20685;-75
2022/08/05 12:54:31;;;;;;;10.25;1.27;;;;;;;;;;5026324;28;20104;-76
2022/08/05 12:56:58;;;;;;;12.20;1.23;;;;;;;;;;5027662;28;20592;-76
2022/08/05 12:59:28;;;;;;;15.05;1.45;;;;;;;;;;5022218;28;20490;-72
2022/08/05 13:01:54;;;;;;;10.65;1.75;;;;;;;;;;5033908;28;20062;-76
2022/08/05 13:04:20;;;;;;;11.52;1.20;;;;;;;;;;5039380;28;20040;-75
2022/08/05 13:06:45;;;;;;;11.15;1.25;;;;;;;;;;5040812;28;20217;-75
2022/08/05 13:09:12;;;;;;;9.57;1.38;;;;;;;;;;5038621;28;20033;-76
2022/08/05 13:11:39;;;;;;;6.20;1.17;;;;;;;;;;5039453;28;20117;-74
2022/08/05 13:14:13;;;;;;;7.72;1.40;;;;;;;;;;5040662;28;20124;-76
2022/08/05 13:17:09;;;;;;;5.57;0.95;;;;;;;;;;5036264;28;20091;-75
2022/08/05 13:19:34;;;;;;;6.05;0.77;;;;;;;;;;5026372;28;20196;-76
2022/08/05 13:21:59;;;;;;;6.63;1.10;;;;;;;;;;5038905;28;20039;-75
2022/08/05 13:24:25;;;;;;;7.88;1.33;;;;;;;;;;5041053;28;20267;-76
2022/08/05 13:26:50;;;;;;;7.47;1.67;;;;;;;;;;5058424;28;20630;-75
2022/08/05 13:29:18;;;;;;;8.90;1.50;;;;;;;;;;5054255;28;20036;-74
2022/08/05 13:31:44;;;;;;;8.57;1.50;;;;;;;;;;5041760;28;20368;-78
2022/08/05 13:34:11;;;;;;;5.68;1.13;;;;;;;;;;5040171;28;20154;-77
2022/08/05 13:36:37;;;;;;;7.88;1.10;;;;;;;;;;5044042;28;20283;-76
2022/08/05 13:39:03;;;;;;;7.55;1.00;;;;;;;;;;5042640;28;20063;-78
2022/08/05 13:41:28;;;;;;;9.38;1.30;;;;;;;;;;5040132;28;20117;-75
2022/08/05 13:43:53;;;;;;;8.82;1.27;;;;;;;;;;5039233;28;20537;-75
2022/08/05 13:46:21;;;;;;;10.38;1.42;;;;;;;;;;5041685;28;20274;-76
2022/08/05 13:48:47;;;;;;;8.20;1.40;;;;;;;;;;5042308;28;20036;-75
2022/08/05 13:51:12;;;;;;;10.85;1.58;;;;;;;;;;5043025;28;20036;-77
2022/08/05 13:53:38;;;;;;;10.00;0.88;;;;;;;;;;5041185;28;20265;-74
2022/08/05 13:56:06;;;;;;;6.55;1.05;;;;;;;;;;5040927;28;20313;-74
2022/08/05 13:58:31;;;;;;;8.23;1.17;;;;;;;;;;5039662;28;20055;-75
2022/08/05 14:00:57;;;;;;;14.85;1.60;;;;;;;;;;5043845;28;20032;-76
2022/08/05 14:03:23;;;;;;;6.00;1.30;;;;;;;;;;5040740;28;20423;-76
2022/08/05 14:05:48;;;;;;;12.80;1.95;;;;;;;;;;5043357;28;21550;-76
2022/08/05 14:08:15;;;;;;;11.13;1.42;;;;;;;;;;5034469;28;20036;-76
2022/08/05 14:10:41;;;;;;;8.50;1.10;;;;;;;;;;5038847;28;20096;-77
2022/08/05 14:13:08;;;;;;;13.05;1.40;;;;;;;;;;5023893;28;20449;-75
2022/08/05 14:15:36;;;;;;;14.80;1.70;;;;;;;;;;5023405;28;20056;-74
2022/08/05 14:18:02;;;;;;;10.02;1.40;;;;;;;;;;5019500;28;20072;-76
2022/08/05 14:20:31;;;;;;;9.73;1.50;;;;;;;;;;5022507;28;20455;-74
2022/08/05 14:22:56;;;;;;;8.98;1.30;;;;;;;;;;5021861;28;20461;-75
2022/08/05 14:25:23;;;;;;;11.98;1.63;;;;;;;;;;5019389;28;20142;-74
2022/08/05 14:27:49;;;;;;;9.27;1.30;;;;;;;;;;5034852;28;20033;-77
2022/08/05 14:30:15;;;;;;;8.55;1.25;;;;;;;;;;5021480;28;20037;-76
2022/08/05 14:32:41;;;;;;;8.07;1.20;;;;;;;;;;5017936;28;20501;-78
2022/08/05 14:35:07;;;;;;;9.13;1.58;;;;;;;;;;5018914;28;20074;-74
2022/08/05 14:37:32;;;;;;;11.43;1.92;;;;;;;;;;5036060;28;20624;-74
2022/08/05 14:39:58;;;;;;;13.85;1.80;;;;;;;;;;5020440;28;20481;-75
2022/08/05 14:42:23;;;;;;;13.98;1.38;;;;;;;;;;5034372;28;20147;-76
2022/08/05 14:44:49;;;;;;;11.38;1.58;;;;;;;;;;5018239;28;20508;-76
2022/08/05 14:47:15;;;;;;;18.92;3.03;;;;;;;;;;5034109;28;20077;-75